createdAt,value
2019-04-10T00:01:45.458Z,6.00
2019-04-10T00:03:46.859Z,6.10
2019-04-10T00:05:48.616Z,6.00
2019-04-10T00:07:50.930Z,5.90
2019-04-10T00:09:52.329Z,5.80
2019-04-10T00:11:54.494Z,5.80
2019-04-10T00:13:55.945Z,5.80
2019-04-10T00:15:57.357Z,5.70
2019-04-10T00:17:59.763Z,5.90
2019-04-10T00:20:04.281Z,5.80
2019-04-10T00:22:06.285Z,5.80
2019-04-10T00:24:08.296Z,5.80
2019-04-10T00:26:09.953Z,5.60
2019-04-10T00:28:11.581Z,5.50
2019-04-10T00:30:13.213Z,5.50
2019-04-10T00:32:14.594Z,5.50
2019-04-10T00:34:16.017Z,5.60
2019-04-10T00:36:18.278Z,5.40
2019-04-10T00:38:19.849Z,5.30
2019-04-10T00:40:21.514Z,5.40
2019-04-10T00:42:23.221Z,5.40
2019-04-10T00:44:25.752Z,5.40
2019-04-10T00:46:28.323Z,5.50
2019-04-10T00:48:30.070Z,5.40
2019-04-10T00:50:32.799Z,5.40
2019-04-10T00:52:34.510Z,5.40
2019-04-10T00:54:35.858Z,5.10
2019-04-10T00:56:37.339Z,5.20
2019-04-10T00:58:39.527Z,5.20
2019-04-10T01:00:41.216Z,5.10
2019-04-10T01:02:42.943Z,5.10
2019-04-10T01:04:44.636Z,5.10
2019-04-10T01:06:46.318Z,5.10
2019-04-10T01:08:47.651Z,5.10
2019-04-10T01:10:48.789Z,5.10
2019-04-10T01:12:49.931Z,5.00
2019-04-10T01:14:51.088Z,5.00
2019-04-10T01:16:52.624Z,5.10
2019-04-10T01:18:53.782Z,5.20
2019-04-10T01:20:55.685Z,5.10
2019-04-10T01:22:57.318Z,5.20
2019-04-10T01:24:58.554Z,5.00
2019-04-10T01:27:00.053Z,5.20
2019-04-10T01:29:05.132Z,5.10
2019-04-10T01:31:06.763Z,5.10
2019-04-10T01:33:08.286Z,4.90
2019-04-10T01:35:09.956Z,4.90
2019-04-10T01:37:12.349Z,4.80
2019-04-10T01:39:22.248Z,4.80
2019-04-10T01:41:23.848Z,4.80
2019-04-10T01:43:25.164Z,4.90
2019-04-10T01:45:27.265Z,4.80
2019-04-10T01:47:28.927Z,4.90
2019-04-10T01:49:31.482Z,4.90
2019-04-10T01:51:33.347Z,5.00
2019-04-10T01:53:35.600Z,4.90
2019-04-10T01:55:37.106Z,4.80
2019-04-10T01:57:38.815Z,4.80
2019-04-10T01:59:40.832Z,4.80
2019-04-10T02:01:44.976Z,4.80
2019-04-10T02:03:46.584Z,4.70
2019-04-10T02:05:49.144Z,4.80
2019-04-10T02:08:01.147Z,4.70
2019-04-10T02:09:54.101Z,4.70
2019-04-10T02:11:56.454Z,4.70
2019-04-10T02:13:58.261Z,4.60
2019-04-10T02:16:00.691Z,4.50
2019-04-10T02:18:03.238Z,4.50
2019-04-10T02:20:07.081Z,4.40
2019-04-10T02:22:08.622Z,4.40
2019-04-10T02:24:09.916Z,4.40
2019-04-10T02:26:11.544Z,4.30
2019-04-10T02:28:13.162Z,4.20
2019-04-10T02:30:17.521Z,4.20
2019-04-10T02:32:18.952Z,4.10
2019-04-10T02:34:21.291Z,4.10
2019-04-10T02:36:23.534Z,4.10
2019-04-10T02:38:38.742Z,4.10
2019-04-10T02:40:28.900Z,4.20
2019-04-10T02:42:30.305Z,4.10
2019-04-10T02:44:33.006Z,4.00
2019-04-10T02:46:34.883Z,4.20
2019-04-10T02:48:36.136Z,4.30
2019-04-10T02:50:37.628Z,4.40
2019-04-10T02:52:41.144Z,4.40
2019-04-10T02:54:43.462Z,4.40
2019-04-10T02:56:46.510Z,4.30
2019-04-10T02:58:49.238Z,4.40
2019-04-10T03:00:52.538Z,4.30
2019-04-10T03:02:55.539Z,4.40
2019-04-10T03:04:59.235Z,4.20
2019-04-10T03:07:02.066Z,4.30
2019-04-10T03:11:16.962Z,4.30
2019-04-10T03:13:19.853Z,4.20
2019-04-10T03:15:21.322Z,4.10
2019-04-10T03:17:22.736Z,4.10
2019-04-10T03:19:24.082Z,4.30
2019-04-10T03:21:25.269Z,4.40
2019-04-10T03:23:26.425Z,4.30
2019-04-10T03:25:28.768Z,4.30
2019-04-10T03:27:30.396Z,4.20
2019-04-10T03:29:31.686Z,4.20
2019-04-10T03:31:34.468Z,4.20
2019-04-10T03:33:47.211Z,4.10
2019-04-10T03:35:49.566Z,4.00
2019-04-10T03:37:51.186Z,4.00
2019-04-10T03:39:53.250Z,3.90
2019-04-10T03:41:55.024Z,3.90
2019-04-10T03:43:56.421Z,3.90
2019-04-10T03:45:57.785Z,4.00
2019-04-10T03:48:00.005Z,4.00
2019-04-10T03:50:02.676Z,4.10
2019-04-10T03:52:05.072Z,4.10
2019-04-10T03:54:06.861Z,3.90
2019-04-10T03:56:08.043Z,3.80
2019-04-10T03:58:09.349Z,3.70
2019-04-10T04:00:12.027Z,3.70
2019-04-10T04:02:13.688Z,3.70
2019-04-10T04:04:15.445Z,3.60
2019-04-10T04:06:17.529Z,3.70
2019-04-10T04:08:19.357Z,3.70
2019-04-10T04:10:20.556Z,3.50
2019-04-10T04:12:22.352Z,3.50
2019-04-10T04:14:24.218Z,3.50
2019-04-10T04:16:26.787Z,3.50
2019-04-10T04:18:28.945Z,3.60
2019-04-10T04:20:30.965Z,3.60
2019-04-10T04:22:32.670Z,3.60
2019-04-10T04:24:34.070Z,3.50
2019-04-10T04:26:35.217Z,3.40
2019-04-10T04:28:36.345Z,3.40
2019-04-10T04:30:38.938Z,3.50
2019-04-10T04:32:40.280Z,3.40
2019-04-10T04:34:41.498Z,3.30
2019-04-10T04:36:43.141Z,3.30
2019-04-10T04:38:45.243Z,3.20
2019-04-10T04:40:46.994Z,3.10
2019-04-10T04:42:49.315Z,3.10
2019-04-10T04:44:50.677Z,3.00
2019-04-10T04:46:52.701Z,2.90
2019-04-10T04:48:54.297Z,2.90
2019-04-10T04:50:56.631Z,3.00
2019-04-10T04:52:58.230Z,3.10
2019-04-10T04:54:59.782Z,3.10
2019-04-10T04:57:04.541Z,3.10
2019-04-10T04:59:05.992Z,3.10
2019-04-10T05:01:07.544Z,3.20
2019-04-10T05:03:09.910Z,3.10
2019-04-10T05:05:11.505Z,3.10
2019-04-10T05:07:13.573Z,3.10
2019-04-10T05:09:27.314Z,3.10
2019-04-10T05:11:18.526Z,3.10
2019-04-10T05:13:20.163Z,3.20
2019-04-10T05:15:21.645Z,3.30
2019-04-10T05:17:22.867Z,3.30
2019-04-10T05:19:25.507Z,3.30
2019-04-10T05:21:27.371Z,3.40
2019-04-10T05:23:28.819Z,3.20
2019-04-10T05:25:30.178Z,3.00
2019-04-10T05:27:31.326Z,2.90
2019-04-10T05:29:32.483Z,2.90
2019-04-10T05:31:34.221Z,2.90
2019-04-10T05:33:36.727Z,2.90
2019-04-10T05:35:38.028Z,2.90
2019-04-10T05:37:40.071Z,3.00
2019-04-10T05:39:47.847Z,2.90
2019-04-10T05:41:44.507Z,3.00
2019-04-10T05:43:46.576Z,3.10
2019-04-10T05:45:48.621Z,3.00
2019-04-10T05:47:50.725Z,3.10
2019-04-10T05:49:53.273Z,3.10
2019-04-10T05:51:55.518Z,3.20
2019-04-10T05:53:57.971Z,3.20
2019-04-10T05:55:59.794Z,3.20
2019-04-10T05:58:01.657Z,3.20
2019-04-10T06:00:08.287Z,3.30
2019-04-10T06:02:09.737Z,3.40
2019-04-10T06:04:11.324Z,3.40
2019-04-10T06:06:12.618Z,3.50
2019-04-10T06:08:14.026Z,3.70
2019-04-10T06:10:15.506Z,3.60
2019-04-10T06:12:16.765Z,3.70
2019-04-10T06:14:18.006Z,3.60
2019-04-10T06:16:19.500Z,3.60
2019-04-10T06:18:20.847Z,3.60
2019-04-10T06:20:23.013Z,3.50
2019-04-10T06:22:24.284Z,3.60
2019-04-10T06:24:25.421Z,3.50
2019-04-10T06:26:27.895Z,3.50
2019-04-10T06:28:30.579Z,3.50
2019-04-10T06:30:32.349Z,3.60
2019-04-10T06:32:34.394Z,3.60
2019-04-10T06:34:36.407Z,3.70
2019-04-10T06:36:38.033Z,3.70
2019-04-10T06:38:39.422Z,3.80
2019-04-10T06:40:41.888Z,3.90
2019-04-10T06:42:48.581Z,4.00
2019-04-10T06:44:46.666Z,3.90
2019-04-10T06:46:48.606Z,4.00
2019-04-10T06:48:50.194Z,3.90
2019-04-10T06:50:51.344Z,3.80
2019-04-10T06:52:52.485Z,3.80
2019-04-10T06:54:54.105Z,4.00
2019-04-10T06:56:56.606Z,4.00
2019-04-10T06:58:58.329Z,4.10
2019-04-10T07:01:01.510Z,4.10
2019-04-10T07:03:03.107Z,4.10
2019-04-10T07:05:08.611Z,4.20
2019-04-10T07:07:12.644Z,4.30
2019-04-10T07:09:13.810Z,4.30
2019-04-10T07:11:18.055Z,4.30
2019-04-10T07:13:19.735Z,4.40
2019-04-10T07:15:23.641Z,4.50
2019-04-10T07:17:25.039Z,4.50
2019-04-10T07:19:26.602Z,4.50
2019-04-10T07:24:18.797Z,4.60
2019-04-10T07:26:33.272Z,4.70
2019-04-10T07:28:23.768Z,4.80
2019-04-10T07:30:26.535Z,4.80
2019-04-10T07:32:29.791Z,4.90
2019-04-10T07:34:32.034Z,5.00
2019-04-10T07:36:33.398Z,5.10
2019-04-10T07:38:35.047Z,5.10
2019-04-10T07:40:36.854Z,5.20
2019-04-10T07:42:41.326Z,5.20
2019-04-10T07:44:41.299Z,5.30
2019-04-10T07:46:42.450Z,5.40
2019-04-10T07:48:43.621Z,5.40
2019-04-10T07:50:46.760Z,5.50
2019-04-10T07:52:47.967Z,5.60
2019-04-10T07:54:50.319Z,5.70
2019-04-10T07:56:51.621Z,5.70
2019-04-10T07:58:53.753Z,5.80
2019-04-10T08:00:55.063Z,5.90
2019-04-10T08:02:57.472Z,5.90
2019-04-10T08:04:59.888Z,6.00
2019-04-10T08:07:01.412Z,6.00
2019-04-10T08:09:06.172Z,6.10
2019-04-10T08:11:07.431Z,6.20
2019-04-10T08:13:08.886Z,6.30
2019-04-10T08:15:11.140Z,6.30
2019-04-10T08:17:12.486Z,6.30
2019-04-10T08:19:14.603Z,6.40
2019-04-10T08:21:15.978Z,6.50
2019-04-10T08:23:17.566Z,6.60
2019-04-10T08:25:19.086Z,6.70
2019-04-10T08:27:21.325Z,6.70
2019-04-10T08:29:23.894Z,6.80
2019-04-10T08:31:25.681Z,6.80
2019-04-10T08:33:28.088Z,6.90
2019-04-10T08:35:29.925Z,6.90
2019-04-10T08:37:31.347Z,7.00
2019-04-10T08:39:40.461Z,7.10
2019-04-10T08:41:37.229Z,7.20
2019-04-10T08:43:39.659Z,7.30
2019-04-10T08:45:48.107Z,7.50
2019-04-10T08:47:44.228Z,7.50
2019-04-10T08:49:45.663Z,7.50
2019-04-10T08:51:47.911Z,7.60
2019-04-10T08:53:50.772Z,7.70
2019-04-10T08:55:52.603Z,7.70
2019-04-10T08:57:54.498Z,7.80
2019-04-10T08:59:56.214Z,7.70
2019-04-10T09:01:57.934Z,7.70
2019-04-10T09:03:59.485Z,7.90
2019-04-10T09:06:00.934Z,8.00
2019-04-10T09:08:02.516Z,8.00
2019-04-10T09:10:05.901Z,8.10
2019-04-10T09:12:07.582Z,8.20
2019-04-10T09:14:09.180Z,8.40
2019-04-10T09:16:10.403Z,8.40
2019-04-10T09:18:12.753Z,8.50
2019-04-10T09:20:14.247Z,8.60
2019-04-10T09:22:16.197Z,8.80
2019-04-10T09:24:17.503Z,8.90
2019-04-10T09:26:18.778Z,9.00
2019-04-10T09:28:20.220Z,9.00
2019-04-10T09:30:21.555Z,9.10
2019-04-10T09:32:22.819Z,9.10
2019-04-10T09:34:24.041Z,9.10
2019-04-10T09:36:25.187Z,9.20
2019-04-10T09:38:26.496Z,9.30
2019-04-10T09:40:28.206Z,9.40
2019-04-10T09:42:29.352Z,9.40
2019-04-10T09:44:30.508Z,9.50
2019-04-10T09:46:31.650Z,9.60
2019-04-10T09:48:33.756Z,9.70
2019-04-10T09:50:35.417Z,9.60
2019-04-10T09:52:37.620Z,9.80
2019-04-10T09:54:38.762Z,9.90
2019-04-10T09:56:40.269Z,9.90
2019-04-10T09:58:42.528Z,10.10
2019-04-10T10:00:44.048Z,10.20
2019-04-10T10:02:45.304Z,10.20
2019-04-10T10:04:46.552Z,10.30
2019-04-10T10:06:47.723Z,10.50
2019-04-10T10:08:50.104Z,10.60
2019-04-10T10:10:51.514Z,10.50
2019-04-10T10:12:52.714Z,10.70
2019-04-10T10:14:54.317Z,10.80
2019-04-10T10:16:55.986Z,11.00
2019-04-10T10:18:57.480Z,11.00
2019-04-10T10:20:59.869Z,10.90
2019-04-10T10:23:01.407Z,10.90
2019-04-10T10:25:05.079Z,10.90
2019-04-10T10:27:07.303Z,10.90
2019-04-10T10:29:09.233Z,11.20
2019-04-10T10:31:11.573Z,11.40
2019-04-10T10:33:13.391Z,11.40
2019-04-10T10:35:14.934Z,11.50
2019-04-10T10:37:16.653Z,11.40
2019-04-10T10:39:19.135Z,11.20
2019-04-10T10:41:20.495Z,11.10
2019-04-10T10:43:22.552Z,10.80
2019-04-10T10:45:24.978Z,10.90
2019-04-10T10:47:26.482Z,11.20
2019-04-10T10:49:28.574Z,11.40
2019-04-10T10:51:30.821Z,11.30
2019-04-10T10:53:32.938Z,11.20
2019-04-10T10:55:34.107Z,11.20
2019-04-10T10:57:35.562Z,11.40
2019-04-10T10:59:37.649Z,11.60
2019-04-10T11:01:39.999Z,11.60
2019-04-10T11:03:42.452Z,11.80
2019-04-10T11:05:44.519Z,11.80
2019-04-10T11:07:47.079Z,12.20
2019-04-10T11:09:49.014Z,12.30
2019-04-10T11:11:50.749Z,12.10
2019-04-10T11:13:55.088Z,12.20
2019-04-10T11:15:56.843Z,12.30
2019-04-10T11:17:58.456Z,12.60
2019-04-10T11:20:00.165Z,12.50
2019-04-10T11:22:05.012Z,12.50
2019-04-10T11:24:06.998Z,12.50
2019-04-10T11:26:30.254Z,12.60
2019-04-10T11:28:33.677Z,12.60
2019-04-10T11:30:36.277Z,12.70
2019-04-10T11:32:38.228Z,12.60
2019-04-10T11:34:40.784Z,12.30
2019-04-10T11:36:42.917Z,12.40
2019-04-10T11:38:46.486Z,12.10
2019-04-10T11:40:49.551Z,12.30
2019-04-10T11:42:51.488Z,12.40
2019-04-10T11:44:55.061Z,12.40
2019-04-10T11:46:58.589Z,12.40
2019-04-10T11:49:00.861Z,12.40
2019-04-10T11:51:16.375Z,12.50
2019-04-10T11:53:19.056Z,12.80
2019-04-10T11:55:25.352Z,13.10
2019-04-10T11:57:23.410Z,13.00
2019-04-10T11:59:26.249Z,13.00
2019-04-10T12:01:28.609Z,13.20
2019-04-10T12:03:32.143Z,13.30
2019-04-10T12:05:36.689Z,13.50
2019-04-10T12:08:01.901Z,13.40
2019-04-10T12:11:44.722Z,14.30
2019-04-10T12:13:46.231Z,14.70
2019-04-10T12:15:48.394Z,14.90
2019-04-10T12:17:49.926Z,15.20
2019-04-10T12:19:52.090Z,15.50
2019-04-10T12:21:53.856Z,15.90
2019-04-10T12:23:54.928Z,16.00
2019-04-10T12:25:56.064Z,16.50
2019-04-10T12:27:57.809Z,16.70
2019-04-10T12:29:59.257Z,16.60
2019-04-10T12:32:00.844Z,16.50
2019-04-10T12:34:03.207Z,16.10
2019-04-10T12:36:06.653Z,16.10
2019-04-10T12:38:10.447Z,16.10
2019-04-10T12:40:11.850Z,16.20
2019-04-10T12:42:14.185Z,16.60
2019-04-10T12:44:15.852Z,17.00
2019-04-10T12:46:17.762Z,17.10
2019-04-10T12:48:19.048Z,17.20
2019-04-10T12:50:20.431Z,17.00
2019-04-10T12:52:22.746Z,16.20
2019-04-10T12:54:25.722Z,16.40
2019-04-10T12:56:26.999Z,16.70
2019-04-10T12:58:28.880Z,17.10
2019-04-10T13:00:30.457Z,17.50
2019-04-10T13:02:31.762Z,17.80
2019-04-10T13:04:33.339Z,18.10
2019-04-10T13:06:34.869Z,18.50
2019-04-10T13:08:54.679Z,18.70
2019-04-10T13:10:39.889Z,18.90
2019-04-10T13:12:41.737Z,19.00
2019-04-10T13:14:43.154Z,19.10
2019-04-10T13:16:44.679Z,19.00
2019-04-10T13:18:46.842Z,19.00
2019-04-10T13:20:48.337Z,19.30
2019-04-10T13:22:50.562Z,19.50
2019-04-10T13:24:52.152Z,19.80
2019-04-10T13:26:55.049Z,20.20
2019-04-10T13:28:56.473Z,20.30
2019-04-10T13:30:58.448Z,20.50
2019-04-10T13:33:00.754Z,19.90
2019-04-10T13:35:05.933Z,18.80
2019-04-10T13:37:08.332Z,17.80
2019-04-10T13:39:13.136Z,18.00
2019-04-10T13:41:14.447Z,18.00
2019-04-10T13:43:15.976Z,18.40
2019-04-10T13:45:17.640Z,19.00
2019-04-10T13:47:19.610Z,19.60
2019-04-10T13:49:21.914Z,19.90
2019-04-10T13:51:23.443Z,20.40
2019-04-10T13:53:25.929Z,20.30
2019-04-10T13:55:28.452Z,19.90
2019-04-10T13:57:30.614Z,19.20
2019-04-10T13:59:33.112Z,18.80
2019-04-10T14:01:35.699Z,19.10
2019-04-10T14:03:37.095Z,19.40
2019-04-10T14:05:39.073Z,19.20
2019-04-10T14:07:40.386Z,19.60
2019-04-10T14:09:47.150Z,19.80
2019-04-10T14:11:45.678Z,20.00
2019-04-10T14:13:46.917Z,20.20
2019-04-10T14:15:48.482Z,20.60
2019-04-10T14:17:50.081Z,20.90
2019-04-10T14:19:51.972Z,20.90
2019-04-10T14:21:53.563Z,20.90
2019-04-10T14:23:55.593Z,21.00
2019-04-10T14:26:00.579Z,21.00
2019-04-10T14:28:02.804Z,21.30
2019-04-10T14:30:09.126Z,21.70
2019-04-10T14:32:13.293Z,21.60
2019-04-10T14:34:15.786Z,21.90
2019-04-10T14:36:18.036Z,21.50
2019-04-10T14:38:19.449Z,21.50
2019-04-10T14:40:22.071Z,21.40
2019-04-10T14:42:24.447Z,21.40
2019-04-10T14:44:25.822Z,21.60
2019-04-10T14:46:26.957Z,22.00
2019-04-10T14:48:28.142Z,22.20
2019-04-10T14:50:29.576Z,22.30
2019-04-10T14:52:31.054Z,22.00
2019-04-10T14:54:32.207Z,22.10
2019-04-10T14:56:34.468Z,22.10
2019-04-10T14:58:36.880Z,22.10
2019-04-10T15:00:41.152Z,22.40
2019-04-10T15:02:43.071Z,22.60
2019-04-10T15:04:44.254Z,22.80
2019-04-10T15:06:45.829Z,22.70
2019-04-10T15:08:48.821Z,22.00
2019-04-10T15:10:50.190Z,22.30
2019-04-10T15:12:51.673Z,22.70
2019-04-10T15:14:54.064Z,22.60
2019-04-10T15:17:02.844Z,22.70
2019-04-10T15:19:00.304Z,22.50
2019-04-10T15:21:02.703Z,22.70
2019-04-10T15:23:05.021Z,22.10
2019-04-10T15:25:06.871Z,22.00
2019-04-10T15:27:08.931Z,22.40
2019-04-10T15:29:10.650Z,22.70
2019-04-10T15:31:11.737Z,22.10
2019-04-10T15:33:14.118Z,21.50
2019-04-10T15:35:15.980Z,21.50
2019-04-10T15:37:17.302Z,21.70
2019-04-10T15:39:25.789Z,21.60
2019-04-10T15:41:21.497Z,21.60
2019-04-10T15:43:23.971Z,21.80
2019-04-10T15:45:26.077Z,21.60
2019-04-10T15:47:27.700Z,21.90
2019-04-10T15:49:30.641Z,21.80
2019-04-10T15:51:32.126Z,22.10
2019-04-10T15:53:34.486Z,22.30
2019-04-10T15:55:35.991Z,22.00
2019-04-10T15:57:47.721Z,21.70
2019-04-10T15:59:40.705Z,21.80
2019-04-10T16:01:43.399Z,21.80
2019-04-10T16:03:45.044Z,21.50
2019-04-10T16:05:46.182Z,21.40
2019-04-10T16:07:47.318Z,21.20
2019-04-10T16:09:52.013Z,21.20
2019-04-10T16:12:10.159Z,21.00
2019-04-10T16:14:20.870Z,21.10
2019-04-10T16:16:35.203Z,21.40
2019-04-10T16:18:36.687Z,21.60
2019-04-10T16:20:38.910Z,21.60
2019-04-10T16:22:42.656Z,21.70
2019-04-10T16:24:45.031Z,21.80
2019-04-10T16:26:47.288Z,21.90
2019-04-10T16:28:48.752Z,21.80
2019-04-10T16:30:50.770Z,21.90
2019-04-10T16:32:52.503Z,21.80
2019-04-10T16:34:54.636Z,21.20
2019-04-10T16:36:56.023Z,21.20
2019-04-10T16:38:57.439Z,21.20
2019-04-10T16:40:58.679Z,20.90
2019-04-10T16:42:59.962Z,20.80
2019-04-10T16:45:01.791Z,20.60
2019-04-10T16:47:03.764Z,20.00
2019-04-10T16:49:04.957Z,20.00
2019-04-10T16:51:06.278Z,19.70
2019-04-10T16:53:07.599Z,19.60
2019-04-10T16:55:10.826Z,19.60
2019-04-10T16:57:14.773Z,19.70
2019-04-10T16:59:16.335Z,19.60
2019-04-10T17:01:18.193Z,19.50
2019-04-10T17:03:19.808Z,19.40
2019-04-10T17:05:21.053Z,18.70
2019-04-10T17:07:23.093Z,18.40
2019-04-10T17:09:26.931Z,17.50
2019-04-10T17:11:29.156Z,17.10
2019-04-10T17:13:32.600Z,16.60
2019-04-10T17:15:34.464Z,15.90
2019-04-10T17:17:36.641Z,15.40
2019-04-10T17:19:46.640Z,15.00
2019-04-10T17:21:42.474Z,14.50
2019-04-10T17:23:44.869Z,14.40
2019-04-10T17:25:46.593Z,14.20
2019-04-10T17:27:47.988Z,13.80
2019-04-10T17:30:09.593Z,13.60
2019-04-10T17:32:11.094Z,13.50
2019-04-10T17:34:12.412Z,13.20
2019-04-10T17:36:13.934Z,13.10
2019-04-10T17:38:15.331Z,13.20
2019-04-10T17:40:28.854Z,13.20
2019-04-10T17:42:20.008Z,13.00
2019-04-10T17:44:21.374Z,13.00
2019-04-10T17:46:22.888Z,12.90
2019-04-10T17:48:25.656Z,12.70
2019-04-10T17:50:27.999Z,12.50
2019-04-10T17:52:29.361Z,12.20
2019-04-10T17:54:31.393Z,12.10
2019-04-10T17:56:32.769Z,11.70
2019-04-10T17:58:33.905Z,11.80
2019-04-10T18:00:37.684Z,11.40
2019-04-10T18:02:39.115Z,11.40
2019-04-10T18:04:40.250Z,11.40
2019-04-10T18:06:44.243Z,11.30
2019-04-10T18:08:45.259Z,11.10
2019-04-10T18:10:49.891Z,11.10
2019-04-10T18:12:49.738Z,10.90
2019-04-10T18:14:51.401Z,11.10
2019-04-10T18:16:54.012Z,11.00
2019-04-10T18:18:55.943Z,10.80
2019-04-10T18:20:58.176Z,10.80
2019-04-10T18:23:00.827Z,10.70
2019-04-10T18:25:05.458Z,10.70
2019-04-10T18:27:07.932Z,10.20
2019-04-10T18:29:09.985Z,10.10
2019-04-10T18:31:12.437Z,10.10
2019-04-10T18:33:14.186Z,10.10
2019-04-10T18:35:16.399Z,10.00
2019-04-10T18:37:22.062Z,9.90
2019-04-10T18:39:21.909Z,9.90
2019-04-10T18:41:24.137Z,9.60
2019-04-10T18:43:25.924Z,9.70
2019-04-10T18:45:28.254Z,9.60
2019-04-10T18:47:32.042Z,9.70
2019-04-10T18:49:33.484Z,9.60
2019-04-10T18:51:36.016Z,9.20
2019-04-10T18:53:37.646Z,9.30
2019-04-10T18:55:39.213Z,9.10
2019-04-10T18:57:41.071Z,9.20
2019-04-10T19:00:02.489Z,9.20
2019-04-10T19:02:17.921Z,9.20
2019-04-10T19:04:21.049Z,9.00
2019-04-10T19:06:24.762Z,9.10
2019-04-10T19:08:26.135Z,9.00
2019-04-10T19:10:28.677Z,9.10
2019-04-10T19:12:30.792Z,8.90
2019-04-10T19:14:36.469Z,8.80
2019-04-10T19:16:35.645Z,8.60
2019-04-10T19:18:37.525Z,8.60
2019-04-10T19:20:38.978Z,8.60
2019-04-10T19:22:40.226Z,8.60
2019-04-10T19:24:41.720Z,8.40
2019-04-10T19:26:43.302Z,8.40
2019-04-10T19:28:46.450Z,8.30
2019-04-10T19:30:49.471Z,8.10
2019-04-10T19:32:50.617Z,8.30
2019-04-10T19:34:52.153Z,8.30
2019-04-10T19:36:54.368Z,8.20
2019-04-10T19:38:55.935Z,8.30
2019-04-10T19:40:58.354Z,8.10
2019-04-10T19:43:00.002Z,8.10
2019-04-10T19:45:01.718Z,7.90
2019-04-10T19:47:04.100Z,7.80
2019-04-10T19:49:06.056Z,7.90
2019-04-10T19:51:07.960Z,7.80
2019-04-10T19:53:09.326Z,7.80
2019-04-10T19:55:11.483Z,7.80
2019-04-10T19:57:13.095Z,7.80
2019-04-10T19:59:14.618Z,7.70
2019-04-10T20:01:16.831Z,7.70
2019-04-10T20:03:19.459Z,7.60
2019-04-10T20:05:21.168Z,7.60
2019-04-10T20:07:22.849Z,7.40
2019-04-10T20:09:24.273Z,7.40
2019-04-10T20:11:35.649Z,7.30
2019-04-10T20:13:30.352Z,7.30
2019-04-10T20:15:31.618Z,7.30
2019-04-10T20:17:32.767Z,7.30
2019-04-10T20:19:34.866Z,7.20
2019-04-10T20:21:36.500Z,7.10
2019-04-10T20:23:38.315Z,7.10
2019-04-10T20:25:40.729Z,7.20
2019-04-10T20:27:42.506Z,7.00
2019-04-10T20:29:45.226Z,6.90
2019-04-10T20:31:47.839Z,7.00
2019-04-10T20:33:49.315Z,7.00
2019-04-10T20:35:50.870Z,6.90
2019-04-10T20:37:53.267Z,6.80
2019-04-10T20:39:55.757Z,7.00
2019-04-10T20:41:59.343Z,7.00
2019-04-10T20:44:00.279Z,6.90
2019-04-10T20:46:03.823Z,6.90
2019-04-10T20:48:06.566Z,6.80
2019-04-10T20:50:08.151Z,6.70
2019-04-10T20:52:10.408Z,6.80
2019-04-10T20:54:12.747Z,6.80
2019-04-10T20:56:15.833Z,6.70
2019-04-10T20:58:18.670Z,6.60
2019-04-10T21:00:22.417Z,6.60
2019-04-10T21:02:24.410Z,6.70
2019-04-10T21:04:25.622Z,6.70
2019-04-10T21:06:27.065Z,6.70
2019-04-10T21:08:28.242Z,6.60
2019-04-10T21:10:29.541Z,6.70
2019-04-10T21:12:30.694Z,6.70
2019-04-10T21:14:31.855Z,6.70
2019-04-10T21:16:33.634Z,6.70
2019-04-10T21:18:35.612Z,6.90
2019-04-10T21:20:37.582Z,7.00
2019-04-10T21:22:38.950Z,7.20
2019-04-10T21:24:41.235Z,7.40
2019-04-10T21:26:42.456Z,7.50
2019-04-10T21:28:43.811Z,7.50
2019-04-10T21:30:59.241Z,7.50
2019-04-10T21:33:03.738Z,7.50
2019-04-10T21:35:07.666Z,7.60
2019-04-10T21:37:09.887Z,7.50
2019-04-10T21:39:12.348Z,7.10
2019-04-10T21:41:15.592Z,6.80
2019-04-10T21:43:18.535Z,6.80
2019-04-10T21:45:20.874Z,6.60
2019-04-10T21:47:23.377Z,6.60
2019-04-10T21:49:26.063Z,6.60
2019-04-10T21:51:28.499Z,6.70
2019-04-10T21:53:31.739Z,6.80
2019-04-10T21:55:33.253Z,6.90
2019-04-10T21:57:34.541Z,6.70
2019-04-10T21:59:36.642Z,6.60
2019-04-10T22:01:40.080Z,6.50
2019-04-10T22:03:41.553Z,6.50
2019-04-10T22:05:44.705Z,6.50
2019-04-10T22:07:48.262Z,6.60
2019-04-10T22:10:07.747Z,6.70
2019-04-10T22:12:21.992Z,6.70
2019-04-10T22:14:15.065Z,6.60
2019-04-10T22:16:17.866Z,6.40
2019-04-10T22:18:19.562Z,6.20
2019-04-10T22:20:20.802Z,6.20
2019-04-10T22:22:22.482Z,6.10
2019-04-10T22:24:23.893Z,6.10
2019-04-10T22:26:25.583Z,6.10
2019-04-10T22:28:26.997Z,6.20
2019-04-10T22:30:28.127Z,6.40
2019-04-10T22:32:29.518Z,6.70
2019-04-10T22:34:30.678Z,6.70
2019-04-10T22:36:31.841Z,6.80
2019-04-10T22:38:33.506Z,6.70
2019-04-10T22:40:34.615Z,6.70
2019-04-10T22:42:42.984Z,6.60
2019-04-10T22:44:43.831Z,6.40
2019-04-10T22:46:42.579Z,6.20
2019-04-10T22:48:44.130Z,5.90
2019-04-10T22:50:45.297Z,5.70
2019-04-10T22:52:46.605Z,5.60
2019-04-10T22:54:48.158Z,5.60
2019-04-10T22:56:50.021Z,5.50
2019-04-10T22:58:51.248Z,5.50
2019-04-10T23:00:52.397Z,5.50
2019-04-10T23:02:53.613Z,5.70
2019-04-10T23:04:55.648Z,5.70
2019-04-10T23:06:57.686Z,5.70
2019-04-10T23:09:00.095Z,5.60
2019-04-10T23:11:01.677Z,5.50
2019-04-10T23:13:05.359Z,5.40
2019-04-10T23:15:09.271Z,5.40
2019-04-10T23:17:10.735Z,5.30
2019-04-10T23:19:12.385Z,5.30
2019-04-10T23:21:14.493Z,5.20
2019-04-10T23:23:16.812Z,5.40
2019-04-10T23:25:18.350Z,5.20
2019-04-10T23:27:19.895Z,5.10
2019-04-10T23:29:22.271Z,5.00
2019-04-10T23:31:23.751Z,4.80
2019-04-10T23:33:25.999Z,4.80
2019-04-10T23:35:27.639Z,4.90
2019-04-10T23:37:29.214Z,5.00
2019-04-10T23:39:30.634Z,5.20
2019-04-10T23:41:31.798Z,5.30
2019-04-10T23:43:33.048Z,5.50
2019-04-10T23:45:34.632Z,5.60
2019-04-10T23:47:36.069Z,5.80
2019-04-10T23:49:37.452Z,5.80
2019-04-10T23:51:39.129Z,5.80
2019-04-10T23:53:40.490Z,5.60
2019-04-10T23:55:41.924Z,5.40
2019-04-10T23:57:43.414Z,5.20
2019-04-10T23:59:44.681Z,5.00
